Arbúcies





Hora UTC 16:00
Temperatura 30.7 ºC
Humitat 32.9 %
Pressió 1025.0 hPa
Pluja 0.0 mm
Velocitat vent 6.4 km/h
Direcció vent ENE
Radiació solar 519.3 W/m²

Dades diàries 2020-07-05



Hora UTC (hivern +1h; estiu +2h)
Temperatura (ºC) Humitat (%) Pressió (hPa) Velocitat vent (km/h) Precipitació (mm) Radiació solar (W/m²)
Hora UTC Aire Humitat Pressió Vel. Dir. Vel. Max Dir. Intent. màx 5 min. Rad. Sol.
00:05 17.4 92.9 1029.0 8.4 SW 13.1 SW 0.0 0.0
00:10 17.5 92.2 1029.0 8.7 SW 12.3 SW 0.0 0.0
00:15 17.5 91.5 1029.0 6.8 SW 10.6 SSW 0.0 0.0
00:20 17.3 91.3 1029.0 7.5 SW 11.6 WSW 0.0 0.0
00:25 17.2 91.7 1028.0 8.2 SW 11.6 WSW 0.0 0.0
00:30 17.0 91.9 1029.0 7.8 SW 10.2 SW 0.0 0.0
00:35 16.9 92.1 1029.0 7.6 SW 10.9 SW 0.0 0.0
00:40 16.9 92.1 1028.0 7.1 SW 12.0 SSW 0.0 0.0
00:45 16.9 92.0 1028.0 6.9 SW 10.9 SW 0.0 0.0
00:50 16.9 91.7 1028.0 7.5 SW 12.0 SW 0.0 0.0
00:55 16.8 91.7 1028.0 7.0 SW 10.2 SSW 0.0 0.0
01:00 16.8 92.0 1029.0 8.0 SW 11.6 SW 0.0 0.0
01:05 16.7 92.1 1028.0 8.6 SW 12.7 SW 0.0 0.0
01:10 16.7 92.1 1028.0 7.7 SW 10.6 SSW 0.0 0.0
01:15 16.5 92.2 1028.0 8.9 SW 15.2 WSW 0.0 0.0
01:20 16.5 92.0 1028.0 10.1 SW 15.5 SW 0.0 0.0
01:25 16.7 90.4 1028.0 9.5 SW 15.9 SW 0.0 0.0
01:30 16.9 88.1 1029.0 8.9 SW 15.5 SW 0.0 0.0
01:35 16.9 88.0 1028.0 7.6 SW 11.3 SW 0.0 0.0
01:40 16.6 89.2 1028.0 8.6 SW 11.6 SW 0.0 0.0
01:45 16.3 90.1 1028.0 8.9 SW 11.3 SW 0.0 0.0
01:50 16.1 90.7 1028.0 9.9 SW 13.4 SW 0.0 0.0
01:55 16.1 90.4 1028.0 9.2 SW 13.1 SW 0.0 0.0
02:00 16.2 89.8 1028.0 8.2 SW 12.0 SW 0.0 0.0
02:05 16.2 89.4 1028.0 7.6 SW 11.3 WSW 0.0 0.0
02:10 16.1 90.0 1028.0 8.4 SW 11.3 SW 0.0 0.0
02:15 15.9 90.8 1028.0 9.3 SSW 11.3 SSW 0.0 0.0
02:20 15.7 91.3 1028.0 8.1 SSW 10.2 SSW 0.0 0.0
02:25 15.7 91.2 1028.0 7.7 SSW 9.9 SW 0.0 0.0
02:30 15.7 90.9 1028.0 7.7 SSW 9.9 SSW 0.0 0.0
02:35 15.6 91.2 1028.0 9.5 SSW 13.4 SSW 0.0 0.0
02:40 15.5 91.0 1028.0 9.5 SW 12.7 SSW 0.0 0.0
02:45 15.3 91.0 1028.0 7.9 SW 10.9 SSW 0.0 0.0
02:50 15.3 91.4 1028.0 9.3 SSW 14.1 SSW 0.0 0.0
02:55 15.2 91.3 1028.0 9.0 SSW 11.6 SW 0.0 0.0
03:00 15.2 91.4 1028.0 9.7 SSW 13.8 S 0.0 0.0
03:05 15.4 90.0 1028.0 11.1 SSW 14.5 SSW 0.0 0.0
03:10 15.4 89.5 1028.0 10.1 SSW 14.5 SSW 0.0 0.0
03:15 15.3 89.7 1028.0 8.1 SSW 10.9 SW 0.0 0.0
03:20 15.1 90.0 1028.0 7.5 SSW 10.6 WSW 0.0 0.0
03:25 15.0 90.5 1028.0 7.2 SW 10.2 WSW 0.0 0.0
03:30 15.0 91.1 1028.0 6.9 SSW 10.9 SW 0.0 0.0
03:35 14.8 91.3 1028.0 6.3 SW 9.5 SSW 0.0 0.0
03:40 14.8 91.7 1028.0 6.1 SSW 8.8 SSW 0.0 0.0
03:45 14.9 92.0 1028.0 6.9 SSW 11.3 SW 0.0 0.0
03:50 14.9 91.7 1028.0 6.9 SSW 11.6 SW 0.0 0.0
03:55 15.0 91.8 1028.0 8.6 SSW 14.5 SW 0.0 0.0
04:00 15.0 91.4 1028.0 9.0 SSW 12.3 SW 0.0 0.0
04:05 15.0 91.4 1028.0 9.8 SSW 13.1 SW 0.0 0.0
04:10 15.1 90.9 1028.0 9.6 SW 13.1 SSW 0.0 0.0
04:15 15.1 90.5 1028.0 10.0 SW 14.1 SSW 0.0 0.1
04:20 15.1 90.4 1028.0 11.5 SSW 14.8 SSW 0.0 1.4
04:25 15.1 90.2 1028.0 11.0 SW 14.1 SSW 0.0 3.1
04:30 15.1 90.0 1028.0 9.3 SW 14.5 SW 0.0 4.6
04:35 15.1 90.0 1028.0 9.3 SW 13.4 WSW 0.0 6.7
04:40 15.1 89.9 1028.0 9.3 SW 13.4 SW 0.0 8.8
04:45 15.0 90.2 1028.0 10.5 SSW 14.5 WSW 0.0 11.1
04:50 15.1 90.5 1028.0 9.9 SW 14.1 SW 0.0 14.2
04:55 15.3 89.4 1028.0 10.2 SW 14.8 SW 0.0 17.3
05:00 15.6 87.5 1028.0 7.7 SW 14.8 SW 0.0 19.8
05:05 15.6 87.1 1028.0 6.2 SSW 9.9 S 0.0 23.4
05:10 15.8 86.3 1028.0 7.7 SW 11.6 SSW 0.0 29.0
05:15 16.1 85.1 1028.0 4.6 SW 7.1 SW 0.0 38.2
05:20 16.1 85.0 1028.0 6.4 SSW 12.3 SSW 0.0 33.7
05:25 16.3 83.2 1028.0 8.8 SSW 11.3 SW 0.0 57.9
05:30 16.5 82.1 1028.0 9.7 SSW 15.2 SW 0.0 133.5
05:35 16.7 80.6 1028.0 11.0 SSW 16.6 SW 0.0 147.6
05:40 17.0 79.6 1028.0 10.7 SSW 14.5 SSW 0.0 160.8
05:45 17.2 78.8 1028.0 10.1 SSW 15.5 SSW 0.0 175.0
05:50 17.5 78.3 1028.0 8.2 SSW 12.7 SW 0.0 189.4
05:55 17.7 77.5 1028.0 8.3 SSW 11.3 SW 0.0 204.2
06:00 18.0 76.4 1028.0 9.5 SSW 14.1 SSW 0.0 219.6
06:05 18.3 75.6 1028.0 8.4 SSW 12.0 SW 0.0 234.9
06:10 18.6 75.2 1028.0 6.9 SSW 9.9 SW 0.0 249.7
06:15 18.9 74.3 1028.0 6.7 SSW 10.2 SSW 0.0 265.2
06:20 19.2 73.2 1028.0 6.4 SSW 9.5 SSW 0.0 280.2
06:25 19.4 73.8 1028.0 3.7 SW 7.1 SW 0.0 293.6
06:30 19.6 74.0 1029.0 5.5 SSW 7.8 SSW 0.0 309.1
06:35 20.0 71.5 1028.0 6.2 SSW 9.2 SSW 0.0 325.1
06:40 20.4 70.3 1028.0 5.8 SSW 8.8 SSW 0.0 341.3
06:45 20.8 70.0 1028.0 3.5 SSW 6.4 SW 0.0 355.4
06:50 20.9 72.9 1028.0 2.2 SSW 3.9 SW 0.0 368.1
06:55 21.5 72.8 1028.0 0.4 SSW 2.1 SSW 0.0 383.2
07:00 22.1 70.8 1029.0 1.4 SW 2.8 SW 0.0 398.6
07:05 22.7 68.5 1028.0 2.0 SW 3.2 SW 0.0 413.1
07:10 23.1 66.6 1028.0 0.8 SW 2.5 SW 0.0 428.7
07:15 23.5 64.2 1028.0 0.0 NNE 0.4 W 0.0 443.4
07:20 24.5 58.6 1028.0 2.2 NE 6.4 NE 0.0 457.5
07:25 24.7 57.4 1028.0 3.1 NE 5.3 NNE 0.0 474.3
07:30 24.6 55.3 1029.0 2.4 ENE 3.9 ENE 0.0 490.9
07:35 24.7 55.3 1028.0 1.6 NE 4.2 ENE 0.0 506.2
07:40 25.1 53.4 1028.0 3.6 NE 6.4 NE 0.0 522.5
07:45 25.3 51.2 1028.0 4.2 NE 7.1 ENE 0.0 536.7
07:50 25.3 52.8 1028.0 3.2 NE 5.6 ENE 0.0 551.9
07:55 25.2 52.2 1028.0 3.7 ENE 7.1 ENE 0.0 567.2
08:00 25.3 55.4 1029.0 2.6 NNE 7.4 NNE 0.0 581.8
08:05 25.3 53.7 1028.0 3.6 NE 7.8 NE 0.0 596.8
08:10 25.4 52.2 1028.0 2.9 ENE 5.3 NE 0.0 612.9
08:15 25.7 52.3 1028.0 1.9 NE 4.2 N 0.0 626.8
08:20 25.9 50.3 1028.0 2.9 NE 8.1 NE 0.0 640.5
08:25 26.0 51.8 1028.0 2.5 ENE 6.4 NE 0.0 652.7
08:30 26.2 50.8 1028.0 2.8 ENE 7.4 E 0.0 666.2
08:35 26.4 52.6 1028.0 3.3 NE 7.4 ENE 0.0 679.7
08:40 26.6 52.3 1028.0 3.8 NNE 6.7 NE 0.0 695.7
08:45 26.5 52.8 1028.0 3.6 NE 8.8 NE 0.0 708.2
08:50 26.6 52.7 1028.0 4.8 ENE 10.6 NE 0.0 719.4
08:55 26.5 54.3 1028.0 6.4 NE 12.0 NE 0.0 733.9
09:00 26.5 55.9 1028.0 4.4 ENE 9.5 NNE 0.0 744.2
09:05 26.7 56.0 1028.0 5.5 NNE 9.9 NE 0.0 756.8
09:10 26.8 56.2 1028.0 6.0 NNE 10.6 NE 0.0 707.6
09:15 27.0 55.6 1028.0 5.4 NE 12.3 ENE 0.0 753.0
09:20 27.2 53.9 1028.0 7.3 NE 13.4 NE 0.0 788.9
09:25 27.0 54.5 1028.0 7.0 NE 12.0 NE 0.0 800.0
09:30 26.9 54.7 1028.0 4.9 NNE 13.1 ENE 0.0 809.0
09:35 27.1 55.9 1028.0 5.8 NE 10.2 ENE 0.0 820.0
09:40 27.4 54.3 1028.0 7.7 NE 14.1 NE 0.0 830.0
09:45 27.5 53.9 1028.0 4.4 NE 9.9 NE 0.0 838.0
09:50 27.4 55.0 1028.0 4.6 NNE 10.9 NE 0.0 846.0
09:55 27.5 54.0 1028.0 5.5 NNE 12.0 NE 0.0 855.0
10:00 27.6 52.6 1028.0 6.5 NNE 10.9 ENE 0.0 862.0
10:05 27.5 51.0 1028.0 5.5 NE 10.2 ENE 0.0 872.0
10:10 27.8 50.7 1028.0 4.2 NNE 10.2 NE 0.0 880.0
10:15 28.0 50.3 1028.0 4.1 NNE 9.2 NE 0.0 886.0
10:20 28.4 47.4 1027.0 4.9 NNE 10.9 ENE 0.0 891.0
10:25 28.7 46.3 1027.0 3.9 NE 8.8 ENE 0.0 897.0
10:30 29.0 43.3 1028.0 4.0 NE 9.5 NNE 0.0 901.0
10:35 29.0 43.2 1027.0 4.8 NE 9.5 N 0.0 906.0
10:40 28.9 42.9 1027.0 7.6 NNE 15.9 NE 0.0 914.0
10:45 28.9 41.4 1027.0 4.5 NE 10.6 NE 0.0 919.0
10:50 29.1 41.3 1027.0 2.4 NNE 8.8 ENE 0.0 924.0
10:55 29.5 40.6 1027.0 1.5 W 4.9 SE 0.0 929.0
11:00 29.7 38.4 1028.0 6.1 ENE 12.0 E 0.0 937.0
11:05 29.9 42.0 1027.0 3.9 NNE 8.8 ENE 0.0 939.0
11:10 30.0 37.2 1027.0 6.0 ENE 12.0 NE 0.0 943.0
11:15 29.5 34.5 1027.0 4.6 E 14.1 NE 0.0 947.0
11:20 29.4 35.1 1027.0 3.1 ESE 7.1 ESE 0.0 952.0
11:25 29.4 35.3 1027.0 1.5 SE 6.4 ESE 0.0 952.0
11:30 29.6 34.3 1027.0 2.0 S 5.6 S 0.0 954.0
11:35 29.8 33.0 1027.0 4.8 SSE 10.9 ENE 0.0 957.0
11:40 30.0 33.2 1027.0 6.0 E 13.1 NE 0.0 961.0
11:45 30.2 34.3 1027.0 6.4 NE 14.5 NE 0.0 964.0
11:50 30.4 34.2 1027.0 7.6 NE 16.2 NE 0.0 964.0
11:55 30.3 33.9 1027.0 6.8 NNE 15.2 NNE 0.0 965.0
12:00 30.4 34.5 1027.0 5.3 N 11.3 NE 0.0 964.0
12:05 30.5 32.8 1027.0 3.0 ENE 9.5 ESE 0.0 962.0
12:10 30.9 33.1 1026.0 5.3 NE 10.6 ENE 0.0 960.0
12:15 31.0 31.6 1027.0 3.1 NE 9.9 ENE 0.0 959.0
12:20 30.8 31.3 1027.0 5.8 NE 16.6 ENE 0.0 959.0
12:25 30.8 30.8 1026.0 4.7 ENE 13.1 NE 0.0 958.0
12:30 30.9 31.6 1027.0 3.4 NNE 8.5 NNE 0.0 954.0
12:35 30.9 32.7 1026.0 4.8 NNE 8.8 NE 0.0 949.0
12:40 30.9 31.5 1026.0 7.8 NE 13.8 NE 0.0 947.0
12:45 30.8 30.5 1026.0 7.7 ENE 14.8 ENE 0.0 944.0
12:50 30.5 29.9 1026.0 6.6 ENE 12.7 E 0.0 941.0
12:55 30.5 30.3 1026.0 4.1 ENE 8.8 NE 0.0 935.0
13:00 30.7 30.6 1027.0 2.3 E 7.1 ENE 0.0 927.0
13:05 30.9 30.1 1026.0 3.3 ESE 8.8 ENE 0.0 867.0
13:10 31.0 30.5 1026.0 6.6 ENE 12.0 NE 0.0 909.0
13:15 31.1 31.7 1026.0 7.6 NE 16.9 ENE 0.0 912.0
13:20 31.4 32.7 1026.0 5.1 NE 10.9 NE 0.0 906.0
13:25 31.2 31.7 1026.0 6.1 NE 12.0 ENE 0.0 899.0
13:30 31.3 32.7 1026.0 3.4 WSW 8.5 W 0.0 889.0
13:35 31.4 30.8 1026.0 3.0 SE 8.8 SE 0.0 883.0
13:40 31.3 32.8 1026.0 5.0 ENE 11.3 NE 0.0 880.0
13:45 30.9 35.6 1026.0 9.0 ENE 18.3 ENE 0.0 874.0
13:50 30.8 35.9 1026.0 6.6 ENE 10.2 E 0.0 865.0
13:55 30.9 35.1 1025.0 3.3 ENE 6.7 NE 0.0 856.0
14:00 31.3 32.8 1026.0 2.1 NE 4.6 NNE 0.0 841.0
14:05 31.3 33.3 1025.0 7.0 NE 15.5 ENE 0.0 831.0
14:10 30.8 36.4 1025.0 10.0 ENE 16.9 ENE 0.0 824.0
14:15 30.8 34.5 1025.0 5.1 E 11.3 ENE 0.0 814.0
14:20 31.0 35.2 1025.0 2.8 WSW 6.0 SW 0.0 799.3
14:25 31.3 33.8 1025.0 4.1 ENE 10.6 NE 0.0 790.3
14:30 31.1 36.6 1026.0 6.9 NE 12.0 ENE 0.0 779.3
14:35 31.1 35.6 1025.0 4.6 NNW 8.1 NNW 0.0 769.4
14:40 31.1 37.9 1025.0 6.9 NE 14.1 ENE 0.0 757.2
14:45 31.3 38.3 1025.0 7.6 NE 17.3 NE 0.0 746.7
14:50 31.3 35.8 1025.0 9.1 NE 17.3 NE 0.0 733.7
14:55 31.2 36.1 1025.0 6.2 NE 12.3 ENE 0.0 717.9
15:00 31.4 37.1 1025.0 5.8 NE 12.7 NE 0.0 703.0
15:05 31.5 35.5 1025.0 5.5 NE 14.8 ENE 0.0 705.1
15:10 31.2 37.5 1025.0 5.1 NE 13.4 ENE 0.0 696.8
15:15 31.2 36.3 1025.0 3.9 NNE 10.9 ENE 0.0 666.0
15:20 31.2 36.4 1025.0 6.0 NNE 15.5 ENE 0.0 654.1
15:25 31.2 35.8 1025.0 7.7 NE 17.6 NNE 0.0 647.4
15:30 31.2 35.3 1025.0 7.5 NE 16.6 ENE 0.0 626.9
15:35 31.2 34.0 1025.0 3.5 NE 9.9 ENE 0.0 607.0
15:40 31.1 35.7 1025.0 2.4 NW 7.8 ENE 0.0 598.6
15:45 31.3 34.3 1025.0 2.9 ENE 7.4 E 0.0 598.5
15:50 31.4 35.9 1025.0 5.6 NE 14.1 E 0.0 573.2
15:55 31.1 33.1 1025.0 4.6 ENE 10.9 ENE 0.0 553.4
16:00 30.7 32.9 1025.0 6.4 ENE 10.6 NE 0.0 519.3
Màxima 31.5 92.9 1029.0 11.5 SSW 18.3 ENE 0.0 965.0
Mínima 14.8 29.9 1025.0
Total 0.0